sensor_id;sensor_type;location;lat;lon;timestamp;pressure;altitude;pressure_sealevel;temperature;humidity
79077;BME280;68477;42.698;23.342;2023-10-19T00:00:45;95488.22;;;7.16;89.28
79077;BME280;68477;42.698;23.342;2023-10-19T00:03:13;95491.94;;;7.14;89.70
79077;BME280;68477;42.698;23.342;2023-10-19T00:05:39;95491.09;;;7.13;89.42
79077;BME280;68477;42.698;23.342;2023-10-19T00:08:07;95484.22;;;7.12;89.78
79077;BME280;68477;42.698;23.342;2023-10-19T00:10:48;95481.91;;;6.82;90.89
79077;BME280;68477;42.698;23.342;2023-10-19T00:13:15;95481.41;;;6.96;90.61
79077;BME280;68477;42.698;23.342;2023-10-19T00:15:44;95474.34;;;7.06;90.01
79077;BME280;68477;42.698;23.342;2023-10-19T00:18:14;95472.88;;;7.04;89.89
79077;BME280;68477;42.698;23.342;2023-10-19T00:20:45;95470.38;;;7.02;90.39
79077;BME280;68477;42.698;23.342;2023-10-19T00:23:14;95467.34;;;7.07;89.78
79077;BME280;68477;42.698;23.342;2023-10-19T00:25:44;95468.69;;;7.11;89.37
79077;BME280;68477;42.698;23.342;2023-10-19T00:28:15;95466.84;;;6.93;90.31
79077;BME280;68477;42.698;23.342;2023-10-19T00:30:42;95464.50;;;6.53;92.80
79077;BME280;68477;42.698;23.342;2023-10-19T00:33:08;95456.16;;;6.40;93.59
79077;BME280;68477;42.698;23.342;2023-10-19T00:35:49;95451.47;;;6.43;93.13
79077;BME280;68477;42.698;23.342;2023-10-19T00:38:41;95459.22;;;6.72;90.98
79077;BME280;68477;42.698;23.342;2023-10-19T00:41:24;95460.03;;;6.83;90.04
79077;BME280;68477;42.698;23.342;2023-10-19T00:43:58;95454.72;;;6.65;90.99
79077;BME280;68477;42.698;23.342;2023-10-19T00:46:28;95452.75;;;6.30;92.12
79077;BME280;68477;42.698;23.342;2023-10-19T00:49:00;95449.00;;;6.42;93.28
79077;BME280;68477;42.698;23.342;2023-10-19T00:51:29;95445.69;;;6.50;91.44
79077;BME280;68477;42.698;23.342;2023-10-19T00:54:16;95449.47;;;6.65;91.38
79077;BME280;68477;42.698;23.342;2023-10-19T00:56:48;95443.53;;;6.35;91.58
79077;BME280;68477;42.698;23.342;2023-10-19T00:59:16;95458.22;;;6.46;90.68
79077;BME280;68477;42.698;23.342;2023-10-19T01:01:55;95450.63;;;6.53;90.28
79077;BME280;68477;42.698;23.342;2023-10-19T01:04:46;95454.50;;;6.49;91.05
79077;BME280;68477;42.698;23.342;2023-10-19T01:07:18;95448.13;;;6.14;92.46
79077;BME280;68477;42.698;23.342;2023-10-19T01:09:48;95454.22;;;6.42;91.24
79077;BME280;68477;42.698;23.342;2023-10-19T01:12:19;95449.97;;;6.41;90.91
79077;BME280;68477;42.698;23.342;2023-10-19T01:15:07;95463.47;;;6.36;91.15
79077;BME280;68477;42.698;23.342;2023-10-19T01:17:43;95461.06;;;6.62;89.74
79077;BME280;68477;42.698;23.342;2023-10-19T01:20:16;95457.66;;;6.42;90.88
79077;BME280;68477;42.698;23.342;2023-10-19T01:22:47;95457.34;;;6.55;90.93
79077;BME280;68477;42.698;23.342;2023-10-19T01:25:14;95458.78;;;6.30;91.13
79077;BME280;68477;42.698;23.342;2023-10-19T01:27:42;95459.25;;;6.16;92.30
79077;BME280;68477;42.698;23.342;2023-10-19T01:30:08;95449.38;;;6.00;93.90
79077;BME280;68477;42.698;23.342;2023-10-19T01:32:35;95450.72;;;6.24;93.37
79077;BME280;68477;42.698;23.342;2023-10-19T01:35:00;95448.47;;;6.38;91.13
79077;BME280;68477;42.698;23.342;2023-10-19T01:37:25;95454.22;;;6.42;91.04
79077;BME280;68477;42.698;23.342;2023-10-19T01:39:51;95455.22;;;6.31;91.26
79077;BME280;68477;42.698;23.342;2023-10-19T01:42:17;95459.50;;;6.23;92.93
79077;BME280;68477;42.698;23.342;2023-10-19T01:44:43;95460.13;;;6.44;90.93
79077;BME280;68477;42.698;23.342;2023-10-19T01:47:09;95460.19;;;6.34;91.48
79077;BME280;68477;42.698;23.342;2023-10-19T01:49:35;95462.09;;;6.32;91.37
79077;BME280;68477;42.698;23.342;2023-10-19T01:52:02;95463.47;;;6.36;90.77
79077;BME280;68477;42.698;23.342;2023-10-19T01:54:29;95460.28;;;6.42;91.31
79077;BME280;68477;42.698;23.342;2023-10-19T01:56:55;95463.81;;;6.61;90.38
79077;BME280;68477;42.698;23.342;2023-10-19T01:59:24;95457.78;;;6.51;90.58
79077;BME280;68477;42.698;23.342;2023-10-19T02:01:55;95454.03;;;6.63;89.87
79077;BME280;68477;42.698;23.342;2023-10-19T02:04:22;95454.41;;;6.31;92.19
79077;BME280;68477;42.698;23.342;2023-10-19T02:06:48;95452.59;;;6.31;92.71
79077;BME280;68477;42.698;23.342;2023-10-19T02:09:15;95453.38;;;6.51;91.84
79077;BME280;68477;42.698;23.342;2023-10-19T02:11:53;95445.22;;;6.27;92.98
79077;BME280;68477;42.698;23.342;2023-10-19T02:14:23;95452.34;;;6.34;93.01
79077;BME280;68477;42.698;23.342;2023-10-19T02:16:53;95455.81;;;6.06;94.15
79077;BME280;68477;42.698;23.342;2023-10-19T02:19:22;95454.19;;;6.05;94.67
79077;BME280;68477;42.698;23.342;2023-10-19T02:21:51;95460.88;;;6.27;93.79
79077;BME280;68477;42.698;23.342;2023-10-19T02:24:18;95461.03;;;5.96;94.09
79077;BME280;68477;42.698;23.342;2023-10-19T02:26:45;95460.50;;;5.93;95.51
79077;BME280;68477;42.698;23.342;2023-10-19T02:29:12;95455.53;;;6.19;94.30
79077;BME280;68477;42.698;23.342;2023-10-19T02:31:42;95462.78;;;6.34;92.91
79077;BME280;68477;42.698;23.342;2023-10-19T02:34:09;95458.03;;;5.91;94.92
79077;BME280;68477;42.698;23.342;2023-10-19T02:36:36;95455.69;;;5.98;94.96
79077;BME280;68477;42.698;23.342;2023-10-19T02:39:07;95460.22;;;6.15;94.40
79077;BME280;68477;42.698;23.342;2023-10-19T02:41:41;95459.47;;;6.32;92.46
79077;BME280;68477;42.698;23.342;2023-10-19T02:44:14;95453.44;;;6.22;93.50
79077;BME280;68477;42.698;23.342;2023-10-19T02:46:43;95451.53;;;6.24;92.17
79077;BME280;68477;42.698;23.342;2023-10-19T02:49:11;95448.13;;;6.14;92.21
79077;BME280;68477;42.698;23.342;2023-10-19T02:51:38;95447.84;;;6.17;91.87
79077;BME280;68477;42.698;23.342;2023-10-19T02:54:04;95451.13;;;6.19;91.63
79077;BME280;68477;42.698;23.342;2023-10-19T02:56:31;95462.25;;;6.11;91.97
79077;BME280;68477;42.698;23.342;2023-10-19T02:58:57;95453.75;;;5.80;93.44
79077;BME280;68477;42.698;23.342;2023-10-19T03:01:32;95462.16;;;6.13;94.19
79077;BME280;68477;42.698;23.342;2023-10-19T03:04:00;95453.88;;;5.89;95.23
79077;BME280;68477;42.698;23.342;2023-10-19T03:06:30;95453.59;;;5.53;96.28
79077;BME280;68477;42.698;23.342;2023-10-19T03:09:00;95441.13;;;5.57;95.41
79077;BME280;68477;42.698;23.342;2023-10-19T03:11:30;95446.19;;;5.77;94.22
79077;BME280;68477;42.698;23.342;2023-10-19T03:13:58;95450.72;;;5.85;94.73
79077;BME280;68477;42.698;23.342;2023-10-19T03:16:24;95448.66;;;5.89;94.28
79077;BME280;68477;42.698;23.342;2023-10-19T03:18:50;95452.25;;;5.97;93.05
79077;BME280;68477;42.698;23.342;2023-10-19T03:21:19;95452.66;;;5.83;93.52
79077;BME280;68477;42.698;23.342;2023-10-19T03:23:49;95451.56;;;5.95;92.69
79077;BME280;68477;42.698;23.342;2023-10-19T03:26:15;95454.03;;;5.97;92.64
79077;BME280;68477;42.698;23.342;2023-10-19T03:28:48;95459.66;;;5.82;93.39
79077;BME280;68477;42.698;23.342;2023-10-19T03:31:14;95455.41;;;5.62;93.27
79077;BME280;68477;42.698;23.342;2023-10-19T03:33:46;95457.34;;;5.79;92.63
79077;BME280;68477;42.698;23.342;2023-10-19T03:36:15;95446.22;;;5.68;94.59
79077;BME280;68477;42.698;23.342;2023-10-19T03:38:41;95447.69;;;5.51;96.01
79077;BME280;68477;42.698;23.342;2023-10-19T03:41:09;95434.66;;;5.80;92.66
79077;BME280;68477;42.698;23.342;2023-10-19T03:43:34;95445.34;;;5.87;93.05
79077;BME280;68477;42.698;23.342;2023-10-19T03:46:03;95438.50;;;5.66;92.83
79077;BME280;68477;42.698;23.342;2023-10-19T03:48:45;95433.97;;;5.78;93.63
79077;BME280;68477;42.698;23.342;2023-10-19T03:51:12;95437.81;;;5.83;93.28
79077;BME280;68477;42.698;23.342;2023-10-19T03:53:39;95432.19;;;5.40;94.27
79077;BME280;68477;42.698;23.342;2023-10-19T03:56:09;95427.66;;;5.61;94.18
79077;BME280;68477;42.698;23.342;2023-10-19T03:58:37;95427.22;;;5.75;93.58
79077;BME280;68477;42.698;23.342;2023-10-19T04:01:04;95422.84;;;5.76;94.30
79077;BME280;68477;42.698;23.342;2023-10-19T04:03:30;95427.22;;;5.75;93.35
79077;BME280;68477;42.698;23.342;2023-10-19T04:05:56;95426.00;;;5.79;92.01
79077;BME280;68477;42.698;23.342;2023-10-19T04:08:26;95432.31;;;5.77;91.94
79077;BME280;68477;42.698;23.342;2023-10-19T04:10:52;95429.97;;;5.83;92.40
79077;BME280;68477;42.698;23.342;2023-10-19T04:13:36;95436.44;;;5.70;93.14
79077;BME280;68477;42.698;23.342;2023-10-19T04:16:02;95436.03;;;5.74;92.71
79077;BME280;68477;42.698;23.342;2023-10-19T04:18:28;95436.59;;;5.68;92.41
79077;BME280;68477;42.698;23.342;2023-10-19T04:20:53;95442.59;;;5.40;94.30
79077;BME280;68477;42.698;23.342;2023-10-19T04:23:19;95437.28;;;5.70;93.41
79077;BME280;68477;42.698;23.342;2023-10-19T04:25:47;95439.84;;;5.32;94.99
79077;BME280;68477;42.698;23.342;2023-10-19T04:28:13;95436.94;;;5.15;95.95
79077;BME280;68477;42.698;23.342;2023-10-19T04:30:45;95436.72;;;5.57;93.53
79077;BME280;68477;42.698;23.342;2023-10-19T04:33:11;95433.13;;;5.29;94.17
79077;BME280;68477;42.698;23.342;2023-10-19T04:35:37;95430.97;;;5.44;94.90
79077;BME280;68477;42.698;23.342;2023-10-19T04:38:04;95430.66;;;5.37;94.21
79077;BME280;68477;42.698;23.342;2023-10-19T04:40:32;95420.19;;;5.08;96.91
79077;BME280;68477;42.698;23.342;2023-10-19T04:43:00;95427.78;;;5.21;96.65
79077;BME280;68477;42.698;23.342;2023-10-19T04:45:27;95420.38;;;5.36;96.74
79077;BME280;68477;42.698;23.342;2023-10-19T04:47:52;95424.66;;;5.46;95.78
79077;BME280;68477;42.698;23.342;2023-10-19T04:50:18;95418.06;;;5.33;95.07
79077;BME280;68477;42.698;23.342;2023-10-19T04:52:44;95416.63;;;5.09;97.15
79077;BME280;68477;42.698;23.342;2023-10-19T04:55:09;95408.78;;;4.90;97.25
79077;BME280;68477;42.698;23.342;2023-10-19T04:57:35;95408.69;;;5.20;95.13
79077;BME280;68477;42.698;23.342;2023-10-19T05:00:01;95412.69;;;5.34;94.23
79077;BME280;68477;42.698;23.342;2023-10-19T05:02:26;95418.44;;;5.18;95.10
79077;BME280;68477;42.698;23.342;2023-10-19T05:04:52;95408.81;;;5.19;94.19
79077;BME280;68477;42.698;23.342;2023-10-19T05:07:17;95418.97;;;5.12;94.68
79077;BME280;68477;42.698;23.342;2023-10-19T05:09:46;95421.34;;;5.35;93.70
79077;BME280;68477;42.698;23.342;2023-10-19T05:12:13;95419.56;;;5.45;94.00
79077;BME280;68477;42.698;23.342;2023-10-19T05:14:40;95424.38;;;5.59;92.67
79077;BME280;68477;42.698;23.342;2023-10-19T05:17:07;95419.97;;;5.60;93.44
79077;BME280;68477;42.698;23.342;2023-10-19T05:19:35;95427.66;;;5.42;93.24
79077;BME280;68477;42.698;23.342;2023-10-19T05:22:02;95417.06;;;5.53;93.46
79077;BME280;68477;42.698;23.342;2023-10-19T05:24:28;95414.06;;;5.48;94.78
79077;BME280;68477;42.698;23.342;2023-10-19T05:26:55;95424.63;;;5.75;94.07
79077;BME280;68477;42.698;23.342;2023-10-19T05:29:20;95418.47;;;5.96;93.97
79077;BME280;68477;42.698;23.342;2023-10-19T05:31:46;95422.31;;;6.01;93.18
79077;BME280;68477;42.698;23.342;2023-10-19T05:34:12;95424.72;;;6.22;92.18
79077;BME280;68477;42.698;23.342;2023-10-19T05:36:38;95430.50;;;6.26;93.64
79077;BME280;68477;42.698;23.342;2023-10-19T05:39:04;95431.41;;;6.44;92.52
79077;BME280;68477;42.698;23.342;2023-10-19T05:41:33;95433.50;;;6.31;93.00
79077;BME280;68477;42.698;23.342;2023-10-19T05:43:59;95440.63;;;6.38;93.79
79077;BME280;68477;42.698;23.342;2023-10-19T05:46:25;95441.91;;;6.25;94.97
79077;BME280;68477;42.698;23.342;2023-10-19T05:48:51;95440.06;;;6.45;93.66
79077;BME280;68477;42.698;23.342;2023-10-19T05:51:18;95436.50;;;6.83;91.82
79077;BME280;68477;42.698;23.342;2023-10-19T05:53:43;95435.91;;;6.89;91.58
79077;BME280;68477;42.698;23.342;2023-10-19T05:56:10;95446.84;;;7.02;90.99
79077;BME280;68477;42.698;23.342;2023-10-19T05:58:36;95441.16;;;6.79;92.06
79077;BME280;68477;42.698;23.342;2023-10-19T06:01:01;95445.91;;;7.21;90.31
79077;BME280;68477;42.698;23.342;2023-10-19T06:03:27;95429.13;;;6.96;91.91
79077;BME280;68477;42.698;23.342;2023-10-19T06:05:53;95433.84;;;7.10;91.30
79077;BME280;68477;42.698;23.342;2023-10-19T06:08:24;95448.38;;;7.22;90.61
79077;BME280;68477;42.698;23.342;2023-10-19T06:10:53;95438.16;;;7.01;91.54
79077;BME280;68477;42.698;23.342;2023-10-19T06:13:19;95443.84;;;7.42;89.74
79077;BME280;68477;42.698;23.342;2023-10-19T06:15:44;95444.00;;;7.58;89.38
79077;BME280;68477;42.698;23.342;2023-10-19T06:18:10;95436.00;;;7.42;89.56
79077;BME280;68477;42.698;23.342;2023-10-19T06:20:43;95436.56;;;7.81;87.26
79077;BME280;68477;42.698;23.342;2023-10-19T06:23:09;95439.44;;;7.78;86.95
79077;BME280;68477;42.698;23.342;2023-10-19T06:25:37;95442.00;;;7.52;88.93
79077;BME280;68477;42.698;23.342;2023-10-19T06:28:05;95430.47;;;7.63;88.23
79077;BME280;68477;42.698;23.342;2023-10-19T06:30:32;95419.94;;;7.73;88.66
79077;BME280;68477;42.698;23.342;2023-10-19T06:32:59;95420.09;;;7.71;87.68
79077;BME280;68477;42.698;23.342;2023-10-19T06:35:29;95420.97;;;7.80;87.61
79077;BME280;68477;42.698;23.342;2023-10-19T06:37:57;95432.84;;;7.92;85.59
79077;BME280;68477;42.698;23.342;2023-10-19T06:40:24;95438.00;;;8.02;85.77
79077;BME280;68477;42.698;23.342;2023-10-19T06:42:52;95444.09;;;7.84;86.54
79077;BME280;68477;42.698;23.342;2023-10-19T06:45:20;95447.56;;;8.11;86.65
79077;BME280;68477;42.698;23.342;2023-10-19T06:47:48;95447.41;;;8.12;86.16
79077;BME280;68477;42.698;23.342;2023-10-19T06:50:14;95443.50;;;8.34;84.58
79077;BME280;68477;42.698;23.342;2023-10-19T06:52:44;95447.50;;;8.38;84.50
79077;BME280;68477;42.698;23.342;2023-10-19T06:55:11;95446.34;;;8.41;84.76
79077;BME280;68477;42.698;23.342;2023-10-19T06:57:51;95436.66;;;8.67;83.88
79077;BME280;68477;42.698;23.342;2023-10-19T07:00:20;95435.19;;;8.65;83.81
79077;BME280;68477;42.698;23.342;2023-10-19T07:02:46;95418.78;;;8.63;83.21
79077;BME280;68477;42.698;23.342;2023-10-19T07:05:15;95422.56;;;8.68;83.77
79077;BME280;68477;42.698;23.342;2023-10-19T07:07:46;95412.34;;;8.91;81.76
79077;BME280;68477;42.698;23.342;2023-10-19T07:10:13;95417.06;;;9.22;80.16
79077;BME280;68477;42.698;23.342;2023-10-19T07:12:41;95422.47;;;9.20;79.54
79077;BME280;68477;42.698;23.342;2023-10-19T07:15:09;95423.69;;;9.50;79.22
79077;BME280;68477;42.698;23.342;2023-10-19T07:17:45;95433.34;;;9.50;78.20
79077;BME280;68477;42.698;23.342;2023-10-19T07:20:12;95436.50;;;9.53;79.21
79077;BME280;68477;42.698;23.342;2023-10-19T07:22:51;95436.00;;;9.58;78.44
79077;BME280;68477;42.698;23.342;2023-10-19T07:25:17;95418.28;;;9.60;79.44
79077;BME280;68477;42.698;23.342;2023-10-19T07:27:47;95415.69;;;9.68;79.55
79077;BME280;68477;42.698;23.342;2023-10-19T07:30:13;95417.63;;;9.58;79.07
79077;BME280;68477;42.698;23.342;2023-10-19T07:32:41;95424.88;;;9.88;77.33
79077;BME280;68477;42.698;23.342;2023-10-19T07:35:09;95431.66;;;10.24;77.91
79077;BME280;68477;42.698;23.342;2023-10-19T07:37:35;95432.59;;;10.14;77.38
79077;BME280;68477;42.698;23.342;2023-10-19T07:40:01;95425.41;;;10.25;76.38
79077;BME280;68477;42.698;23.342;2023-10-19T07:42:26;95436.03;;;10.07;77.12
79077;BME280;68477;42.698;23.342;2023-10-19T07:44:51;95427.69;;;9.87;78.57
79077;BME280;68477;42.698;23.342;2023-10-19T07:47:17;95430.97;;;10.46;77.43
79077;BME280;68477;42.698;23.342;2023-10-19T07:49:42;95440.44;;;10.71;75.61
79077;BME280;68477;42.698;23.342;2023-10-19T07:52:08;95450.66;;;10.58;76.39
79077;BME280;68477;42.698;23.342;2023-10-19T07:54:36;95433.19;;;11.21;72.70
79077;BME280;68477;42.698;23.342;2023-10-19T07:57:03;95427.78;;;11.22;73.53
79077;BME280;68477;42.698;23.342;2023-10-19T07:59:31;95433.81;;;11.62;71.39
79077;BME280;68477;42.698;23.342;2023-10-19T08:01:57;95431.63;;;11.97;71.29
79077;BME280;68477;42.698;23.342;2023-10-19T08:04:22;95432.13;;;12.52;68.50
79077;BME280;68477;42.698;23.342;2023-10-19T08:06:50;95437.06;;;13.00;66.70
79077;BME280;68477;42.698;23.342;2023-10-19T08:09:16;95437.59;;;12.66;66.27
79077;BME280;68477;42.698;23.342;2023-10-19T08:11:48;95435.78;;;12.51;67.13
79077;BME280;68477;42.698;23.342;2023-10-19T08:14:14;95435.09;;;13.67;64.51
79077;BME280;68477;42.698;23.342;2023-10-19T08:16:39;95427.50;;;13.13;65.62
79077;BME280;68477;42.698;23.342;2023-10-19T08:19:07;95421.03;;;13.82;63.11
79077;BME280;68477;42.698;23.342;2023-10-19T08:21:32;95416.28;;;14.41;59.67
79077;BME280;68477;42.698;23.342;2023-10-19T08:23:59;95415.16;;;14.50;59.46
79077;BME280;68477;42.698;23.342;2023-10-19T08:26:30;95419.03;;;14.05;60.33
79077;BME280;68477;42.698;23.342;2023-10-19T08:28:55;95428.25;;;13.73;61.79
79077;BME280;68477;42.698;23.342;2023-10-19T08:31:21;95426.78;;;14.56;58.50
79077;BME280;68477;42.698;23.342;2023-10-19T08:33:46;95420.28;;;15.28;56.70
79077;BME280;68477;42.698;23.342;2023-10-19T08:36:17;95431.34;;;15.86;54.85
79077;BME280;68477;42.698;23.342;2023-10-19T08:38:45;95420.09;;;15.77;54.20
79077;BME280;68477;42.698;23.342;2023-10-19T08:41:10;95424.75;;;15.21;55.94
79077;BME280;68477;42.698;23.342;2023-10-19T08:43:36;95417.25;;;15.31;56.09
79077;BME280;68477;42.698;23.342;2023-10-19T08:46:05;95426.50;;;14.44;58.34
79077;BME280;68477;42.698;23.342;2023-10-19T08:48:34;95423.13;;;15.20;57.06
79077;BME280;68477;42.698;23.342;2023-10-19T08:51:03;95419.72;;;15.87;55.44
79077;BME280;68477;42.698;23.342;2023-10-19T08:53:36;95421.75;;;15.85;54.14
79077;BME280;68477;42.698;23.342;2023-10-19T08:56:06;95424.88;;;15.06;56.10
79077;BME280;68477;42.698;23.342;2023-10-19T08:58:34;95425.06;;;15.04;58.06
79077;BME280;68477;42.698;23.342;2023-10-19T09:00:59;95418.28;;;15.91;55.43
79077;BME280;68477;42.698;23.342;2023-10-19T09:03:32;95418.13;;;14.97;55.47
79077;BME280;68477;42.698;23.342;2023-10-19T09:06:01;95417.94;;;16.73;53.18
79077;BME280;68477;42.698;23.342;2023-10-19T09:08:27;95403.44;;;16.56;52.78
79077;BME280;68477;42.698;23.342;2023-10-19T09:11:09;95399.38;;;16.47;52.98
79077;BME280;68477;42.698;23.342;2023-10-19T09:13:52;95397.69;;;15.86;54.53
79077;BME280;68477;42.698;23.342;2023-10-19T09:16:19;95402.91;;;15.60;55.13
79077;BME280;68477;42.698;23.342;2023-10-19T09:18:46;95389.16;;;16.77;52.02
79077;BME280;68477;42.698;23.342;2023-10-19T09:21:16;95387.94;;;16.46;52.80
79077;BME280;68477;42.698;23.342;2023-10-19T09:23:55;95384.03;;;16.29;53.16
79077;BME280;68477;42.698;23.342;2023-10-19T09:26:22;95373.59;;;15.94;54.20
79077;BME280;68477;42.698;23.342;2023-10-19T09:28:52;95376.34;;;17.25;51.86
79077;BME280;68477;42.698;23.342;2023-10-19T09:31:19;95372.44;;;17.21;50.54
79077;BME280;68477;42.698;23.342;2023-10-19T09:33:47;95364.72;;;17.13;50.09
79077;BME280;68477;42.698;23.342;2023-10-19T09:36:14;95363.63;;;16.03;53.65
79077;BME280;68477;42.698;23.342;2023-10-19T09:41:12;95348.19;;;18.19;49.44
79077;BME280;68477;42.698;23.342;2023-10-19T09:43:41;95345.13;;;17.90;49.94
79077;BME280;68477;42.698;23.342;2023-10-19T09:46:08;95355.00;;;17.45;50.03
79077;BME280;68477;42.698;23.342;2023-10-19T09:48:42;95355.06;;;17.25;49.92
79077;BME280;68477;42.698;23.342;2023-10-19T09:51:11;95349.84;;;18.70;47.44
79077;BME280;68477;42.698;23.342;2023-10-19T09:53:39;95340.13;;;19.12;45.65
79077;BME280;68477;42.698;23.342;2023-10-19T09:56:07;95344.56;;;17.82;49.03
79077;BME280;68477;42.698;23.342;2023-10-19T09:58:36;95338.03;;;19.32;45.82
79077;BME280;68477;42.698;23.342;2023-10-19T10:01:05;95333.81;;;19.25;45.40
79077;BME280;68477;42.698;23.342;2023-10-19T10:03:50;95332.31;;;18.30;47.47
79077;BME280;68477;42.698;23.342;2023-10-19T10:09:17;95321.53;;;19.24;45.88
79077;BME280;68477;42.698;23.342;2023-10-19T10:11:48;95321.03;;;18.35;48.12
79077;BME280;68477;42.698;23.342;2023-10-19T10:14:24;95313.91;;;18.90;46.83
79077;BME280;68477;42.698;23.342;2023-10-19T10:17:03;95318.34;;;18.78;46.38
79077;BME280;68477;42.698;23.342;2023-10-19T10:19:30;95315.47;;;19.46;45.41
79077;BME280;68477;42.698;23.342;2023-10-19T10:22:08;95311.09;;;20.35;43.55
79077;BME280;68477;42.698;23.342;2023-10-19T10:24:46;95311.97;;;19.34;44.41
79077;BME280;68477;42.698;23.342;2023-10-19T10:27:18;95300.66;;;19.81;43.39
79077;BME280;68477;42.698;23.342;2023-10-19T10:29:58;95290.94;;;20.51;42.31
79077;BME280;68477;42.698;23.342;2023-10-19T10:32:43;95290.44;;;19.77;43.80
79077;BME280;68477;42.698;23.342;2023-10-19T10:35:09;95285.56;;;19.74;43.67
79077;BME280;68477;42.698;23.342;2023-10-19T10:37:36;95281.25;;;19.62;43.93
79077;BME280;68477;42.698;23.342;2023-10-19T10:40:02;95272.69;;;18.13;47.15
79077;BME280;68477;42.698;23.342;2023-10-19T10:42:31;95263.00;;;19.59;45.31
79077;BME280;68477;42.698;23.342;2023-10-19T10:44:56;95249.47;;;19.12;44.97
79077;BME280;68477;42.698;23.342;2023-10-19T10:47:22;95250.09;;;18.96;45.60
79077;BME280;68477;42.698;23.342;2023-10-19T10:49:54;95252.47;;;19.64;43.44
79077;BME280;68477;42.698;23.342;2023-10-19T10:52:28;95243.63;;;20.52;41.94
79077;BME280;68477;42.698;23.342;2023-10-19T10:54:57;95236.50;;;19.87;43.31
79077;BME280;68477;42.698;23.342;2023-10-19T10:57:23;95237.50;;;19.63;44.28
79077;BME280;68477;42.698;23.342;2023-10-19T11:00:26;95237.09;;;19.89;42.94
79077;BME280;68477;42.698;23.342;2023-10-19T11:03:01;95231.63;;;19.72;44.28
79077;BME280;68477;42.698;23.342;2023-10-19T11:05:29;95221.66;;;20.61;42.58
79077;BME280;68477;42.698;23.342;2023-10-19T11:10:34;95217.97;;;20.27;43.09
79077;BME280;68477;42.698;23.342;2023-10-19T11:13:11;95208.22;;;21.87;39.41
79077;BME280;68477;42.698;23.342;2023-10-19T11:15:38;95204.16;;;21.68;39.12
79077;BME280;68477;42.698;23.342;2023-10-19T11:18:05;95200.41;;;22.36;37.85
79077;BME280;68477;42.698;23.342;2023-10-19T11:20:32;95195.72;;;22.87;36.93
79077;BME280;68477;42.698;23.342;2023-10-19T11:22:58;95205.63;;;22.26;38.39
79077;BME280;68477;42.698;23.342;2023-10-19T11:25:29;95193.06;;;23.95;35.01
79077;BME280;68477;42.698;23.342;2023-10-19T11:27:59;95187.72;;;23.41;36.67
79077;BME280;68477;42.698;23.342;2023-10-19T11:30:30;95177.31;;;23.44;35.69
79077;BME280;68477;42.698;23.342;2023-10-19T11:32:59;95177.56;;;24.49;33.97
79077;BME280;68477;42.698;23.342;2023-10-19T11:35:30;95175.53;;;24.24;34.13
79077;BME280;68477;42.698;23.342;2023-10-19T11:38:00;95176.75;;;24.49;34.24
79077;BME280;68477;42.698;23.342;2023-10-19T11:40:26;95172.72;;;24.09;34.50
79077;BME280;68477;42.698;23.342;2023-10-19T11:42:53;95157.69;;;23.17;36.56
79077;BME280;68477;42.698;23.342;2023-10-19T11:45:21;95155.03;;;24.13;35.24
79077;BME280;68477;42.698;23.342;2023-10-19T11:47:48;95155.56;;;23.78;35.16
79077;BME280;68477;42.698;23.342;2023-10-19T11:50:14;95153.88;;;24.46;33.93
79077;BME280;68477;42.698;23.342;2023-10-19T11:52:43;95158.28;;;24.20;34.38
79077;BME280;68477;42.698;23.342;2023-10-19T11:55:09;95156.81;;;23.65;36.01
79077;BME280;68477;42.698;23.342;2023-10-19T11:57:35;95148.53;;;24.56;34.06
79077;BME280;68477;42.698;23.342;2023-10-19T12:00:02;95156.66;;;24.19;34.29
79077;BME280;68477;42.698;23.342;2023-10-19T12:02:36;95152.72;;;24.89;33.23
79077;BME280;68477;42.698;23.342;2023-10-19T12:05:06;95148.75;;;24.45;34.05
79077;BME280;68477;42.698;23.342;2023-10-19T12:07:39;95144.88;;;24.25;34.18
79077;BME280;68477;42.698;23.342;2023-10-19T12:10:06;95144.53;;;25.42;32.51
79077;BME280;68477;42.698;23.342;2023-10-19T12:12:34;95145.81;;;25.14;32.57
79077;BME280;68477;42.698;23.342;2023-10-19T12:15:00;95140.69;;;24.45;34.19
79077;BME280;68477;42.698;23.342;2023-10-19T12:17:27;95129.47;;;23.68;35.26
79077;BME280;68477;42.698;23.342;2023-10-19T12:19:53;95131.78;;;23.33;36.06
79077;BME280;68477;42.698;23.342;2023-10-19T12:22:19;95116.19;;;23.57;35.46
79077;BME280;68477;42.698;23.342;2023-10-19T12:24:47;95125.94;;;24.05;35.17
79077;BME280;68477;42.698;23.342;2023-10-19T12:27:14;95125.53;;;23.54;35.16
79077;BME280;68477;42.698;23.342;2023-10-19T12:29:39;95121.53;;;24.31;34.11
79077;BME280;68477;42.698;23.342;2023-10-19T12:32:06;95111.22;;;21.85;38.62
79077;BME280;68477;42.698;23.342;2023-10-19T12:34:31;95113.88;;;22.84;36.28
79077;BME280;68477;42.698;23.342;2023-10-19T12:36:58;95113.22;;;23.90;34.88
79077;BME280;68477;42.698;23.342;2023-10-19T12:39:24;95112.72;;;25.29;32.60
79077;BME280;68477;42.698;23.342;2023-10-19T12:42:10;95105.44;;;25.09;33.25
79077;BME280;68477;42.698;23.342;2023-10-19T12:44:36;95095.22;;;25.21;32.88
79077;BME280;68477;42.698;23.342;2023-10-19T12:47:08;95102.97;;;24.92;32.86
79077;BME280;68477;42.698;23.342;2023-10-19T12:49:40;95106.84;;;24.54;32.78
79077;BME280;68477;42.698;23.342;2023-10-19T12:52:07;95095.78;;;25.64;31.83
79077;BME280;68477;42.698;23.342;2023-10-19T12:54:37;95087.44;;;25.30;32.43
79077;BME280;68477;42.698;23.342;2023-10-19T12:57:03;95093.91;;;25.69;32.25
79077;BME280;68477;42.698;23.342;2023-10-19T12:59:30;95088.00;;;24.44;33.68
79077;BME280;68477;42.698;23.342;2023-10-19T13:01:55;95087.84;;;24.71;32.91
79077;BME280;68477;42.698;23.342;2023-10-19T13:04:24;95086.09;;;25.83;31.55
79077;BME280;68477;42.698;23.342;2023-10-19T13:06:51;95090.94;;;24.42;33.45
79077;BME280;68477;42.698;23.342;2023-10-19T13:09:17;95093.22;;;24.13;34.44
79077;BME280;68477;42.698;23.342;2023-10-19T13:11:47;95077.88;;;24.76;32.81